Time;durP1;ratioP1;P1;durP2;ratioP2;P2;SDS_P1;SDS_P2;PMS_P1;PMS_P2;Temp;Humidity;BMP_temperature;BMP_pressure;BME280_temperature;BME280_humidity;BME280_pressure;Samples;Min_cycle;Max_cycle;Signal;HPM_P1;HPM_P2
2021/12/02 00:02:09;;;;;;;;;;;4.50;87.80;;;;;;5021805;28;19947;-81
2021/12/02 00:04:39;;;;;;;;;;;4.40;87.90;;;;;;5019388;28;20312;-79
2021/12/02 00:07:07;;;;;;;;;;;4.40;88.10;;;;;;5008365;28;19928;-80
2021/12/02 00:09:34;;;;;;;;;;;4.40;88.80;;;;;;5015908;28;19922;-79
2021/12/02 00:12:03;;;;;;;;;;;4.40;87.60;;;;;;5016155;28;19929;-79
2021/12/02 00:14:39;;;;;;;;;;;4.30;88.40;;;;;;5019788;28;19922;-80
2021/12/02 00:17:20;;;;;;;;;;;4.30;87.80;;;;;;5009389;28;19925;-79
2021/12/02 00:22:33;;;;;;;;;;;4.20;87.60;;;;;;5016970;28;19925;-80
2021/12/02 00:25:03;;;;;;;;;;;4.10;87.70;;;;;;5014496;28;19948;-80
2021/12/02 00:27:30;;;;;;;;;;;4.20;87.70;;;;;;5015902;28;19940;-81
2021/12/02 00:29:58;;;;;;;;;;;4.10;87.70;;;;;;5015614;28;19921;-80
2021/12/02 00:32:26;;;;;;;;;;;4.10;88.80;;;;;;5043937;28;19960;-81
2021/12/02 00:34:54;;;;;;;;;;;4.10;89.90;;;;;;5018135;28;19948;-80
2021/12/02 00:37:21;;;;;;;;;;;4.00;90.00;;;;;;5016662;28;19925;-79
2021/12/02 00:39:52;;;;;;;;;;;3.90;90.20;;;;;;5012961;28;19979;-80
2021/12/02 00:42:19;;;;;;;;;;;3.90;89.80;;;;;;5020573;28;19967;-79
2021/12/02 00:44:46;;;;;;;;;;;4.00;90.00;;;;;;5017975;28;19922;-80
2021/12/02 00:47:15;;;;;;;;;;;4.00;90.20;;;;;;5026574;28;19982;-80
2021/12/02 00:49:43;;;;;;;;;;;4.00;90.60;;;;;;5023850;28;19930;-78
2021/12/02 00:52:11;;;;;;;;;;;4.00;90.40;;;;;;5018547;28;19932;-81
2021/12/02 00:54:39;;;;;;;;;;;4.00;90.40;;;;;;5017469;28;20432;-79
2021/12/02 00:57:08;;;;;;;;;;;4.00;90.40;;;;;;5026942;28;19921;-82
2021/12/02 00:59:35;;;;;;;;;;;4.00;90.30;;;;;;5025903;28;19955;-80
2021/12/02 01:02:02;;;;;;;;;;;4.00;90.40;;;;;;5017312;28;20381;-82
2021/12/02 01:04:29;;;;;;;;;;;4.00;90.20;;;;;;5049665;28;20396;-81
2021/12/02 01:06:56;;;;;;;;;;;4.00;90.00;;;;;;5020359;28;19921;-79
2021/12/02 01:09:23;;;;;;;;;;;4.10;90.00;;;;;;5024503;28;20399;-82
2021/12/02 01:11:53;;;;;;;;;;;4.10;90.00;;;;;;5027184;28;20339;-79
2021/12/02 01:14:21;;;;;;;;;;;4.10;90.50;;;;;;5015595;28;20086;-79
2021/12/02 01:16:48;;;;;;;;;;;4.10;90.50;;;;;;5012334;28;19971;-81
2021/12/02 01:19:15;;;;;;;;;;;4.20;90.30;;;;;;5023257;28;20301;-80
2021/12/02 01:21:43;;;;;;;;;;;4.20;90.40;;;;;;5015356;28;19932;-81
2021/12/02 01:24:15;;;;;;;;;;;4.20;90.30;;;;;;5057557;28;19963;-82
2021/12/02 01:26:47;;;;;;;;;;;4.20;90.50;;;;;;5022246;28;19971;-80
2021/12/02 01:29:15;;;;;;;;;;;4.20;90.30;;;;;;5009978;28;19925;-80
2021/12/02 01:31:42;;;;;;;;;;;4.20;90.90;;;;;;5023129;28;19929;-79
2021/12/02 01:34:09;;;;;;;;;;;4.10;91.10;;;;;;5013027;28;19921;-82
2021/12/02 01:36:37;;;;;;;;;;;4.10;91.00;;;;;;5016079;28;19989;-81
2021/12/02 01:39:05;;;;;;;;;;;4.10;91.20;;;;;;5020345;28;19984;-79
2021/12/02 01:41:51;;;;;;;;;;;4.00;91.10;;;;;;5018624;28;19925;-79
2021/12/02 01:44:19;;;;;;;;;;;4.10;91.10;;;;;;5023599;28;19928;-81
2021/12/02 01:46:48;;;;;;;;;;;4.00;91.00;;;;;;5021127;28;19967;-79
2021/12/02 01:49:16;;;;;;;;;;;4.00;90.90;;;;;;5019982;28;19925;-79
2021/12/02 01:51:47;;;;;;;;;;;4.10;90.90;;;;;;5016744;28;19928;-82
2021/12/02 01:54:16;;;;;;;;;;;4.10;90.80;;;;;;5019086;28;19921;-81
2021/12/02 01:56:43;;;;;;;;;;;4.10;90.70;;;;;;5041524;28;20386;-78
2021/12/02 01:59:18;;;;;;;;;;;4.10;90.70;;;;;;5017984;28;19996;-81
2021/12/02 02:01:46;;;;;;;;;;;4.10;90.80;;;;;;5021367;28;20452;-79
2021/12/02 02:04:14;;;;;;;;;;;4.10;90.60;;;;;;5017572;28;19940;-79
2021/12/02 02:06:53;;;;;;;;;;;4.10;90.50;;;;;;5051127;28;19921;-78
2021/12/02 02:09:21;;;;;;;;;;;4.10;91.00;;;;;;5012859;28;19937;-78
2021/12/02 02:11:49;;;;;;;;;;;4.10;91.10;;;;;;5019553;28;20380;-79
2021/12/02 02:14:16;;;;;;;;;;;4.10;90.80;;;;;;5015183;28;19948;-82
2021/12/02 02:16:42;;;;;;;;;;;4.10;90.80;;;;;;5015394;28;19928;-81
2021/12/02 02:19:12;;;;;;;;;;;4.00;91.20;;;;;;5021046;28;20436;-79
2021/12/02 02:21:39;;;;;;;;;;;4.00;91.30;;;;;;5017260;28;19928;-79
2021/12/02 02:24:11;;;;;;;;;;;4.00;91.10;;;;;;5021246;28;20385;-80
2021/12/02 02:26:38;;;;;;;;;;;4.10;91.10;;;;;;5016006;28;20340;-78
2021/12/02 02:29:06;;;;;;;;;;;4.10;91.00;;;;;;5016532;28;19925;-79
2021/12/02 02:31:33;;;;;;;;;;;4.10;91.20;;;;;;5016844;28;20377;-79
2021/12/02 02:34:00;;;;;;;;;;;4.10;91.10;;;;;;5020604;28;19932;-80
2021/12/02 02:36:29;;;;;;;;;;;4.10;91.10;;;;;;5016053;28;19971;-80
2021/12/02 02:38:59;;;;;;;;;;;4.10;90.90;;;;;;5051041;28;19921;-80
2021/12/02 02:41:28;;;;;;;;;;;4.20;90.80;;;;;;5014099;28;19922;-79
2021/12/02 02:43:57;;;;;;;;;;;4.20;90.90;;;;;;5044910;28;20274;-79
2021/12/02 02:46:26;;;;;;;;;;;4.20;90.90;;;;;;5014701;28;19921;-79
2021/12/02 02:48:53;;;;;;;;;;;4.20;91.00;;;;;;5021869;28;19921;-80
2021/12/02 02:51:20;;;;;;;;;;;4.20;91.00;;;;;;5021593;28;20312;-82
2021/12/02 02:53:50;;;;;;;;;;;4.20;90.90;;;;;;5024384;28;19928;-80
2021/12/02 02:56:18;;;;;;;;;;;4.20;90.80;;;;;;5017875;28;19972;-80
2021/12/02 02:58:56;;;;;;;;;;;4.20;90.80;;;;;;5016338;28;19925;-82
2021/12/02 03:01:34;;;;;;;;;;;4.20;91.10;;;;;;5018061;28;19932;-80
2021/12/02 03:11:50;;;;;;;;;;;4.10;91.30;;;;;;5021856;28;19928;-82
2021/12/02 03:14:21;;;;;;;;;;;4.10;91.10;;;;;;5016105;28;19925;-82
2021/12/02 03:16:48;;;;;;;;;;;4.10;91.00;;;;;;5017323;28;19928;-81
2021/12/02 03:19:21;;;;;;;;;;;4.10;91.30;;;;;;5015291;28;19921;-79
2021/12/02 03:21:47;;;;;;;;;;;4.10;90.80;;;;;;5015138;28;19991;-80
2021/12/02 03:24:16;;;;;;;;;;;4.10;90.70;;;;;;5027512;28;19925;-79
2021/12/02 03:26:43;;;;;;;;;;;4.10;90.70;;;;;;5021339;28;19929;-79
2021/12/02 03:29:09;;;;;;;;;;;4.10;90.70;;;;;;5017004;28;19944;-80
2021/12/02 03:31:39;;;;;;;;;;;4.10;90.70;;;;;;5029741;28;20329;-79
2021/12/02 03:34:07;;;;;;;;;;;4.10;90.60;;;;;;5021591;28;19921;-79
2021/12/02 03:36:34;;;;;;;;;;;4.10;90.40;;;;;;5016085;28;19922;-80
2021/12/02 03:39:02;;;;;;;;;;;4.20;90.50;;;;;;5016213;28;19929;-81
2021/12/02 03:41:29;;;;;;;;;;;4.10;90.40;;;;;;5019903;28;20397;-80
2021/12/02 03:43:56;;;;;;;;;;;4.10;90.60;;;;;;5003335;28;20033;-81
2021/12/02 03:46:24;;;;;;;;;;;4.10;90.40;;;;;;5009909;28;19926;-81
2021/12/02 03:48:51;;;;;;;;;;;4.10;90.40;;;;;;5017543;28;19961;-79
2021/12/02 03:51:19;;;;;;;;;;;4.10;90.50;;;;;;5016231;28;20400;-79
2021/12/02 03:53:46;;;;;;;;;;;4.10;90.40;;;;;;5022729;28;20004;-79
2021/12/02 03:56:13;;;;;;;;;;;4.10;90.40;;;;;;5030043;28;19929;-81
2021/12/02 03:58:41;;;;;;;;;;;4.10;90.30;;;;;;5018669;28;20297;-81
2021/12/02 04:01:08;;;;;;;;;;;4.10;90.30;;;;;;5018574;28;19925;-78
2021/12/02 04:03:35;;;;;;;;;;;4.10;90.30;;;;;;5001867;28;19925;-81
2021/12/02 04:06:03;;;;;;;;;;;4.00;90.80;;;;;;5018732;28;19921;-80
2021/12/02 04:08:45;;;;;;;;;;;4.00;90.90;;;;;;5013957;28;19971;-79
2021/12/02 04:11:30;;;;;;;;;;;3.90;91.10;;;;;;5021825;28;19995;-81
2021/12/02 04:16:26;;;;;;;;;;;3.80;91.00;;;;;;5009868;28;19932;-79
2021/12/02 04:18:53;;;;;;;;;;;3.80;91.00;;;;;;5017049;28;20400;-81
2021/12/02 04:21:20;;;;;;;;;;;3.80;91.20;;;;;;5020991;28;19921;-80
2021/12/02 04:23:47;;;;;;;;;;;3.80;90.70;;;;;;5025429;28;19929;-80
2021/12/02 04:26:14;;;;;;;;;;;3.80;90.80;;;;;;5021131;28;20435;-79
2021/12/02 04:28:41;;;;;;;;;;;3.80;90.80;;;;;;5016926;28;19921;-79
2021/12/02 04:31:08;;;;;;;;;;;3.80;90.70;;;;;;5020200;28;19928;-79
2021/12/02 04:33:35;;;;;;;;;;;3.80;90.70;;;;;;5022364;28;19999;-79
2021/12/02 04:36:02;;;;;;;;;;;3.70;90.50;;;;;;5018955;28;19929;-79
2021/12/02 04:38:29;;;;;;;;;;;3.70;90.50;;;;;;5020151;28;19944;-79
2021/12/02 04:40:57;;;;;;;;;;;3.60;90.50;;;;;;5015507;28;20436;-81
2021/12/02 04:43:23;;;;;;;;;;;3.60;90.30;;;;;;5023089;28;19971;-81
2021/12/02 04:45:51;;;;;;;;;;;3.50;90.30;;;;;;5024427;28;20289;-81
2021/12/02 04:48:18;;;;;;;;;;;3.50;90.20;;;;;;5022330;28;19971;-81
2021/12/02 04:50:46;;;;;;;;;;;3.50;90.20;;;;;;5019925;28;19929;-80
2021/12/02 04:53:13;;;;;;;;;;;3.40;90.60;;;;;;5019864;28;19921;-80
2021/12/02 04:55:39;;;;;;;;;;;3.40;90.40;;;;;;5027346;28;19921;-81
2021/12/02 04:58:07;;;;;;;;;;;3.40;90.20;;;;;;5023753;28;19929;-79
2021/12/02 05:00:34;;;;;;;;;;;3.30;90.30;;;;;;5054032;28;19925;-79
2021/12/02 05:03:01;;;;;;;;;;;3.30;90.40;;;;;;5018521;28;20024;-81
2021/12/02 05:05:28;;;;;;;;;;;3.20;90.10;;;;;;5024120;28;19921;-78
2021/12/02 05:07:55;;;;;;;;;;;3.20;90.10;;;;;;5031072;28;19921;-78
2021/12/02 05:10:22;;;;;;;;;;;3.10;90.40;;;;;;5020444;28;19992;-79
2021/12/02 05:12:49;;;;;;;;;;;3.00;90.20;;;;;;5018329;28;20008;-79
2021/12/02 05:15:16;;;;;;;;;;;3.00;90.10;;;;;;5045414;28;19921;-81
2021/12/02 05:17:43;;;;;;;;;;;3.00;90.20;;;;;;5016304;28;19933;-81
2021/12/02 05:20:10;;;;;;;;;;;2.90;90.10;;;;;;5015780;28;19971;-79
2021/12/02 05:22:38;;;;;;;;;;;2.90;90.30;;;;;;5043438;28;19930;-80
2021/12/02 05:25:05;;;;;;;;;;;2.80;90.00;;;;;;5027511;28;20456;-79
2021/12/02 05:27:32;;;;;;;;;;;2.80;90.20;;;;;;5017473;28;19929;-79
2021/12/02 05:29:59;;;;;;;;;;;2.70;90.10;;;;;;5015123;28;19922;-81
2021/12/02 05:32:30;;;;;;;;;;;2.70;90.60;;;;;;5051745;28;19925;-80
2021/12/02 05:34:57;;;;;;;;;;;2.60;90.90;;;;;;5015378;28;19925;-81
2021/12/02 05:37:24;;;;;;;;;;;2.60;90.60;;;;;;5020041;28;19921;-81
2021/12/02 05:39:52;;;;;;;;;;;2.50;90.40;;;;;;5017505;28;20687;-79
2021/12/02 05:42:19;;;;;;;;;;;2.40;90.30;;;;;;5014915;28;19975;-80
2021/12/02 05:44:51;;;;;;;;;;;2.40;90.10;;;;;;5022674;28;20758;-79
2021/12/02 05:47:18;;;;;;;;;;;2.40;91.40;;;;;;5010301;28;19925;-81
2021/12/02 05:49:45;;;;;;;;;;;2.40;91.30;;;;;;5015151;28;19975;-81
2021/12/02 05:52:16;;;;;;;;;;;2.30;91.30;;;;;;5021188;28;19925;-81
2021/12/02 05:54:43;;;;;;;;;;;2.20;90.90;;;;;;5030931;28;20411;-79
2021/12/02 05:57:10;;;;;;;;;;;2.20;90.90;;;;;;5025201;28;19928;-79
2021/12/02 05:59:37;;;;;;;;;;;2.10;90.80;;;;;;5020225;28;19979;-80
2021/12/02 06:02:06;;;;;;;27.40;15.10;;;2.10;91.30;;;;;;5020537;28;19936;-81
2021/12/02 06:04:37;;;;;;;29.92;21.13;;;2.10;91.60;;;;;;5015592;28;20415;-81
2021/12/02 06:07:05;;;;;;;27.80;20.23;;;2.10;91.10;;;;;;5013714;28;20396;-80
2021/12/02 06:09:32;;;;;;;29.05;20.90;;;2.10;91.10;;;;;;5012517;28;20506;-80
2021/12/02 06:11:59;;;;;;;26.17;19.05;;;2.10;91.10;;;;;;5017650;28;20403;-80
2021/12/02 06:14:26;;;;;;;23.67;16.55;;;2.10;91.10;;;;;;5014059;28;20400;-80
2021/12/02 06:16:53;;;;;;;23.20;17.70;;;2.10;91.00;;;;;;5012145;28;20445;-79
2021/12/02 06:19:20;;;;;;;23.33;17.02;;;2.00;91.00;;;;;;5011643;28;20404;-80
2021/12/02 06:21:48;;;;;;;22.33;17.60;;;2.00;90.80;;;;;;5015058;28;20506;-80
2021/12/02 06:24:15;;;;;;;21.58;17.02;;;1.90;90.50;;;;;;5045135;28;20893;-79
2021/12/02 06:26:42;;;;;;;21.10;17.40;;;1.80;90.50;;;;;;5014999;28;20880;-79
2021/12/02 06:29:09;;;;;;;21.42;17.27;;;1.80;90.60;;;;;;5014340;28;20404;-79
2021/12/02 06:31:36;;;;;;;21.17;15.87;;;1.80;90.50;;;;;;5013579;28;20404;-79
2021/12/02 06:34:03;;;;;;;20.85;17.02;;;1.70;90.30;;;;;;5014661;28;20484;-81
2021/12/02 06:36:30;;;;;;;20.45;15.63;;;1.70;90.10;;;;;;5005901;28;20404;-79
2021/12/02 06:38:59;;;;;;;22.58;16.77;;;1.70;90.20;;;;;;5014426;28;20860;-78
2021/12/02 06:41:26;;;;;;;18.65;15.30;;;1.70;90.20;;;;;;5016653;28;21038;-79
2021/12/02 06:43:53;;;;;;;20.05;16.65;;;1.70;90.50;;;;;;5002694;28;20453;-81
2021/12/02 06:46:20;;;;;;;18.13;14.67;;;1.70;90.40;;;;;;5010348;28;20415;-79
2021/12/02 06:48:49;;;;;;;23.45;15.90;;;1.70;90.20;;;;;;5005022;28;20932;-80
2021/12/02 06:51:19;;;;;;;24.77;17.92;;;1.70;90.10;;;;;;5009401;28;20922;-79
2021/12/02 06:53:48;;;;;;;20.27;15.95;;;1.60;90.00;;;;;;5012533;28;20419;-79
2021/12/02 06:56:16;;;;;;;23.15;16.48;;;1.60;90.80;;;;;;5024116;28;20517;-80
2021/12/02 06:58:43;;;;;;;23.17;17.92;;;1.60;90.30;;;;;;5020032;28;20427;-79
2021/12/02 07:01:10;;;;;;;21.02;16.92;;;1.50;90.20;;;;;;5015417;28;20459;-79
2021/12/02 07:03:38;;;;;;;21.35;17.23;;;1.50;90.10;;;;;;5012939;28;20405;-80
2021/12/02 07:06:04;;;;;;;25.80;19.77;;;1.60;90.10;;;;;;5044866;28;20416;-79
2021/12/02 07:08:32;;;;;;;26.20;18.70;;;1.50;89.60;;;;;;5013685;28;20426;-81
2021/12/02 07:11:00;;;;;;;24.50;18.73;;;1.50;89.50;;;;;;5022882;28;20414;-81
2021/12/02 07:13:27;;;;;;;23.43;19.00;;;1.50;89.40;;;;;;5020075;28;20500;-79
2021/12/02 07:15:56;;;;;;;26.77;21.52;;;1.50;90.00;;;;;;5011686;28;20486;-79
2021/12/02 07:18:24;;;;;;;31.27;22.67;;;1.50;90.10;;;;;;5014541;28;20437;-80
2021/12/02 07:20:51;;;;;;;23.05;19.13;;;1.50;90.40;;;;;;5011633;28;20894;-82
2021/12/02 07:23:20;;;;;;;27.47;20.17;;;1.40;90.60;;;;;;5012082;28;20422;-81
2021/12/02 07:25:49;;;;;;;22.58;19.05;;;1.40;90.80;;;;;;5002897;28;20446;-79
2021/12/02 07:28:17;;;;;;;23.00;18.48;;;1.40;90.60;;;;;;5011489;28;20415;-80
2021/12/02 07:30:47;;;;;;;21.95;17.58;;;1.40;90.50;;;;;;5024475;28;20433;-80
2021/12/02 07:33:14;;;;;;;20.15;16.38;;;1.50;90.40;;;;;;5012234;28;20406;-79
2021/12/02 07:35:42;;;;;;;21.05;17.23;;;1.50;90.20;;;;;;5017083;28;20503;-81
2021/12/02 07:38:09;;;;;;;23.60;18.13;;;1.50;90.10;;;;;;5014743;28;20446;-78
2021/12/02 07:40:39;;;;;;;19.20;15.38;;;1.60;90.20;;;;;;5013516;28;20284;-78
2021/12/02 07:43:06;;;;;;;21.42;14.75;;;1.70;90.00;;;;;;5016808;28;20045;-79
2021/12/02 07:45:37;;;;;;;24.45;15.98;;;1.80;89.60;;;;;;5025831;28;20050;-79
2021/12/02 07:48:05;;;;;;;22.48;15.93;;;1.90;90.10;;;;;;5018861;28;20053;-79
2021/12/02 07:50:34;;;;;;;21.05;16.13;;;1.90;90.10;;;;;;5014163;28;20129;-79
2021/12/02 07:53:05;;;;;;;22.38;15.85;;;1.90;90.30;;;;;;5013639;28;20537;-79
2021/12/02 07:55:37;;;;;;;21.17;16.05;;;1.90;90.10;;;;;;5008202;28;20064;-79
2021/12/02 07:58:10;;;;;;;21.55;16.33;;;2.00;90.20;;;;;;5018637;28;20062;-81
2021/12/02 08:00:37;;;;;;;18.10;14.73;;;2.00;90.00;;;;;;5019087;28;20092;-80
2021/12/02 08:03:09;;;;;;;22.73;16.10;;;2.10;90.20;;;;;;5018252;28;20101;-81
2021/12/02 08:05:36;;;;;;;21.02;15.30;;;2.20;90.00;;;;;;5011707;28;20046;-81
2021/12/02 08:08:04;;;;;;;20.13;14.40;;;2.30;89.50;;;;;;5014562;28;20069;-79
2021/12/02 08:10:31;;;;;;;16.90;13.70;;;2.40;89.30;;;;;;5044035;28;20069;-79
2021/12/02 08:13:00;;;;;;;22.25;15.65;;;2.60;89.30;;;;;;5014622;28;20453;-79
2021/12/02 08:15:30;;;;;;;20.48;15.90;;;2.70;89.60;;;;;;5016862;28;20508;-81
2021/12/02 08:17:59;;;;;;;20.88;16.05;;;2.90;89.30;;;;;;5013673;28;20068;-79
2021/12/02 08:20:28;;;;;;;28.10;19.70;;;3.10;88.80;;;;;;5019698;28;20046;-79
2021/12/02 08:22:55;;;;;;;27.85;19.90;;;3.30;89.30;;;;;;5017719;28;20050;-81
2021/12/02 08:25:25;;;;;;;29.08;24.58;;;3.50;88.50;;;;;;5013569;28;20468;-81
2021/12/02 08:27:53;;;;;;;27.85;23.38;;;3.70;88.30;;;;;;5011004;28;20407;-81
2021/12/02 08:30:26;;;;;;;27.42;22.45;;;4.00;87.90;;;;;;5017953;28;20471;-79
2021/12/02 08:32:58;;;;;;;31.00;25.42;;;4.20;87.20;;;;;;5010847;28;20462;-81
2021/12/02 08:35:26;;;;;;;31.13;26.65;;;4.40;87.50;;;;;;5020171;28;20419;-80
2021/12/02 08:37:57;;;;;;;32.00;26.15;;;4.50;86.90;;;;;;5011534;28;20396;-81
2021/12/02 08:40:31;;;;;;;33.28;28.23;;;4.70;86.40;;;;;;5009613;28;20404;-80
2021/12/02 08:43:00;;;;;;;35.38;28.67;;;4.80;86.50;;;;;;5010693;28;20938;-82
2021/12/02 08:45:28;;;;;;;32.83;27.13;;;5.00;85.60;;;;;;5010705;28;20471;-79
2021/12/02 08:47:57;;;;;;;33.03;26.23;;;5.10;85.50;;;;;;5012004;28;20450;-81
2021/12/02 08:50:24;;;;;;;32.78;26.58;;;5.10;85.10;;;;;;5013359;28;20408;-80
2021/12/02 08:52:52;;;;;;;32.83;26.20;;;5.10;85.10;;;;;;5011272;28;20754;-81
2021/12/02 08:55:21;;;;;;;26.77;22.75;;;5.20;84.80;;;;;;5006001;28;20400;-81
2021/12/02 08:57:51;;;;;;;26.63;22.60;;;5.30;85.00;;;;;;5012378;28;20400;-78
2021/12/02 09:00:20;;;;;;;26.77;21.88;;;5.40;84.70;;;;;;5010154;28;20427;-79
2021/12/02 09:02:48;;;;;;;29.92;21.38;;;5.50;84.20;;;;;;5016181;28;20424;-80
2021/12/02 09:05:15;;;;;;;29.13;22.30;;;5.60;84.20;;;;;;5015076;28;20512;-81
2021/12/02 09:07:43;;;;;;;27.85;20.30;;;5.70;83.90;;;;;;5013989;28;20412;-79
2021/12/02 09:10:14;;;;;;;31.75;22.35;;;5.80;83.40;;;;;;5017082;28;20410;-81
2021/12/02 09:12:42;;;;;;;27.33;19.57;;;5.90;83.00;;;;;;5016765;28;20407;-81
2021/12/02 09:15:10;;;;;;;26.35;20.70;;;6.00;82.50;;;;;;5016676;28;20873;-79
2021/12/02 09:17:38;;;;;;;25.83;19.27;;;6.20;82.30;;;;;;5008647;28;20880;-80
2021/12/02 09:20:08;;;;;;;29.27;21.52;;;6.30;81.70;;;;;;5013769;28;20416;-79
2021/12/02 09:22:35;;;;;;;27.67;19.63;;;6.30;80.80;;;;;;5049750;28;20478;-79
2021/12/02 09:25:05;;;;;;;28.00;20.63;;;6.40;80.60;;;;;;5015972;28;20400;-81
2021/12/02 09:27:32;;;;;;;28.80;21.48;;;6.50;80.50;;;;;;5014607;28;20420;-82
2021/12/02 09:30:00;;;;;;;27.75;22.02;;;6.60;80.30;;;;;;5013858;28;20416;-80
2021/12/02 09:32:28;;;;;;;29.00;21.50;;;6.60;79.00;;;;;;5004916;28;20408;-81
2021/12/02 09:34:55;;;;;;;27.17;20.45;;;6.70;78.90;;;;;;5021225;28;20883;-80
2021/12/02 09:37:22;;;;;;;26.55;23.33;;;6.80;78.80;;;;;;5020026;28;20402;-79
2021/12/02 09:39:49;;;;;;;25.63;20.45;;;6.80;77.40;;;;;;5001064;28;20886;-79
2021/12/02 09:42:16;;;;;;;24.85;20.27;;;6.80;76.70;;;;;;5013571;28;20424;-81
2021/12/02 09:44:59;;;;;;;23.08;19.67;;;6.90;76.60;;;;;;5011652;28;20519;-79
2021/12/02 09:47:31;;;;;;;26.70;19.90;;;7.00;75.50;;;;;;5020134;28;20773;-79
2021/12/02 09:50:08;;;;;;;23.40;19.73;;;7.10;74.50;;;;;;5016537;28;20420;-81
2021/12/02 09:52:38;;;;;;;29.63;20.63;;;7.20;73.40;;;;;;5013235;28;20942;-78
2021/12/02 09:55:12;;;;;;;22.80;19.60;;;7.30;73.60;;;;;;5018152;28;20432;-81
2021/12/02 09:57:44;;;;;;;23.33;19.13;;;7.30;73.30;;;;;;5004069;28;20400;-80
2021/12/02 10:00:17;;;;;;;21.67;18.75;;;7.40;72.80;;;;;;5017726;28;20442;-80
2021/12/02 10:03:00;;;;;;;23.60;18.30;;;7.50;73.00;;;;;;5018491;28;20419;-78
2021/12/02 10:05:38;;;;;;;22.63;18.10;;;7.60;71.70;;;;;;5013160;28;20408;-78
2021/12/02 10:08:09;;;;;;;21.20;18.45;;;7.70;71.00;;;;;;5022872;28;20410;-78
2021/12/02 10:10:51;;;;;;;21.57;18.10;;;7.80;71.20;;;;;;5024676;28;20461;-80
2021/12/02 10:16:12;;;;;;;20.88;18.58;;;7.90;70.00;;;;;;5019433;28;20392;-78
2021/12/02 10:19:06;;;;;;;23.58;18.20;;;7.80;69.70;;;;;;5013389;28;20411;-79
2021/12/02 10:21:43;;;;;;;22.40;18.73;;;7.80;70.10;;;;;;5009162;28;20430;-78
2021/12/02 10:24:15;;;;;;;21.85;19.02;;;8.00;70.50;;;;;;5022367;28;20403;-81
2021/12/02 10:26:49;;;;;;;22.48;17.75;;;8.10;69.80;;;;;;5013146;28;20868;-80
2021/12/02 10:29:39;;;;;;;26.10;20.42;;;8.10;70.10;;;;;;5012340;28;20400;-81
2021/12/02 10:32:28;;;;;;;22.42;17.67;;;8.20;69.70;;;;;;5016135;28;20408;-78
2021/12/02 10:35:01;;;;;;;24.77;18.23;;;8.20;69.00;;;;;;5055215;28;20876;-80
2021/12/02 10:37:34;;;;;;;23.23;18.90;;;8.30;69.10;;;;;;5017270;28;20465;-82
2021/12/02 10:40:06;;;;;;;23.00;18.77;;;8.40;69.10;;;;;;5013630;28;20416;-78
2021/12/02 10:42:38;;;;;;;23.70;19.10;;;8.40;69.20;;;;;;5001282;28;20507;-80
2021/12/02 10:45:20;;;;;;;22.48;18.52;;;8.50;68.40;;;;;;5014767;28;20411;-81
2021/12/02 10:47:49;;;;;;;23.30;19.43;;;8.50;69.30;;;;;;5021169;28;20399;-82
2021/12/02 10:50:17;;;;;;;22.77;17.67;;;8.60;67.90;;;;;;5010932;28;20454;-79
2021/12/02 10:52:44;;;;;;;23.10;18.60;;;8.70;68.30;;;;;;5009564;28;20419;-81
2021/12/02 10:55:14;;;;;;;24.13;18.00;;;8.90;67.90;;;;;;5012647;28;20482;-78
2021/12/02 10:58:07;;;;;;;19.58;14.93;;;9.00;66.60;;;;;;5019262;28;20513;-80
2021/12/02 11:00:41;;;;;;;;;;;8.80;67.90;;;;;;5019690;28;20041;-78
2021/12/02 11:03:09;;;;;;;;;;;8.90;66.90;;;;;;5021795;28;19928;-80
2021/12/02 11:05:44;;;;;;;;;;;9.00;66.80;;;;;;5014414;28;19928;-79
2021/12/02 11:08:12;;;;;;;;;;;9.00;66.50;;;;;;5012883;28;19927;-81
2021/12/02 11:10:41;;;;;;;;;;;9.10;66.10;;;;;;5017710;28;19928;-77
2021/12/02 11:13:09;;;;;;;;;;;9.00;65.20;;;;;;5022656;28;20297;-79
2021/12/02 11:15:38;;;;;;;;;;;9.00;65.60;;;;;;5018712;28;19929;-79
2021/12/02 11:18:09;;;;;;;;;;;9.10;66.10;;;;;;5015554;28;19930;-80
2021/12/02 11:20:46;;;;;;;;;;;9.30;65.90;;;;;;5014232;28;20004;-81
2021/12/02 11:23:18;;;;;;;;;;;9.30;65.40;;;;;;5028096;28;20407;-79
2021/12/02 11:25:59;;;;;;;;;;;9.30;65.50;;;;;;5026545;28;19925;-78
2021/12/02 11:28:28;;;;;;;;;;;9.40;65.20;;;;;;5015255;28;19925;-81
2021/12/02 11:30:56;;;;;;;;;;;9.60;65.80;;;;;;5025402;28;19952;-79
2021/12/02 11:33:32;;;;;;;;;;;9.60;64.70;;;;;;5025789;28;19925;-81
2021/12/02 11:35:59;;;;;;;;;;;9.70;64.80;;;;;;5018610;28;19921;-81
2021/12/02 11:38:28;;;;;;;;;;;10.00;64.30;;;;;;5016942;28;19948;-80
2021/12/02 11:40:57;;;;;;;;;;;10.10;64.30;;;;;;5001480;28;19948;-78
2021/12/02 11:43:26;;;;;;;;;;;10.20;63.60;;;;;;5014434;28;19944;-80
2021/12/02 11:45:54;;;;;;;;;;;10.20;63.10;;;;;;5010843;28;19921;-80
2021/12/02 11:48:25;;;;;;;;;;;10.30;62.70;;;;;;5018482;28;19922;-81
2021/12/02 11:51:00;;;;;;;;;;;10.30;62.60;;;;;;5015611;28;19953;-80
2021/12/02 11:53:27;;;;;;;;;;;10.40;62.80;;;;;;5035028;28;19936;-80
2021/12/02 11:55:56;;;;;;;;;;;10.40;61.80;;;;;;5016974;28;20443;-80
2021/12/02 11:58:23;;;;;;;;;;;10.30;62.40;;;;;;5014907;28;19921;-79
2021/12/02 12:00:51;;;;;;;;;;;10.50;62.70;;;;;;5045515;28;20263;-79
2021/12/02 12:03:20;;;;;;;;;;;10.60;62.20;;;;;;5045487;28;19921;-78
2021/12/02 12:05:53;;;;;;;;;;;10.80;62.20;;;;;;5015074;28;19922;-81
2021/12/02 12:08:29;;;;;;;;;;;10.90;61.30;;;;;;5023380;28;19964;-80
2021/12/02 12:10:56;;;;;;;;;;;10.80;61.30;;;;;;5012398;28;19921;-78
2021/12/02 12:13:23;;;;;;;;;;;10.90;60.60;;;;;;5012378;28;19926;-81
2021/12/02 12:15:51;;;;;;;;;;;10.90;60.20;;;;;;5011438;28;20374;-81
2021/12/02 12:18:20;;;;;;;;;;;10.90;60.00;;;;;;5045647;28;20282;-80
2021/12/02 12:20:53;;;;;;;;;;;10.80;60.90;;;;;;5011886;28;19921;-81
2021/12/02 12:23:30;;;;;;;;;;;10.80;61.30;;;;;;5010313;28;19929;-80
2021/12/02 12:26:17;;;;;;;;;;;10.80;60.80;;;;;;5014266;28;19921;-81
2021/12/02 12:29:03;;;;;;;;;;;10.80;61.00;;;;;;5002216;28;19922;-81
2021/12/02 12:34:26;;;;;;;;;;;11.00;61.10;;;;;;5002763;28;19945;-81
2021/12/02 12:36:53;;;;;;;;;;;11.20;60.40;;;;;;5015557;28;19925;-83
2021/12/02 12:39:22;;;;;;;;;;;11.10;60.10;;;;;;5012000;28;20301;-79
2021/12/02 12:42:08;;;;;;;;;;;11.20;60.10;;;;;;5014617;28;19948;-79
2021/12/02 12:44:52;;;;;;;;;;;11.40;60.30;;;;;;5018998;28;19929;-79
2021/12/02 12:47:20;;;;;;;;;;;11.50;60.10;;;;;;5016148;28;19922;-79
2021/12/02 12:49:46;;;;;;;;;;;11.40;58.60;;;;;;5015479;28;19932;-81
2021/12/02 12:52:14;;;;;;;;;;;11.30;59.00;;;;;;5018069;28;20403;-79
2021/12/02 12:54:42;;;;;;;;;;;11.20;59.30;;;;;;5018115;28;19929;-79
2021/12/02 12:57:08;;;;;;;;;;;11.30;60.50;;;;;;5015023;28;19928;-79
2021/12/02 12:59:54;;;;;;;;;;;11.30;60.20;;;;;;5019143;28;20022;-79
2021/12/02 13:02:24;;;;;;;;;;;11.20;59.70;;;;;;5008050;28;19922;-80
2021/12/02 13:04:54;;;;;;;;;;;11.30;60.70;;;;;;5011341;28;19925;-79
2021/12/02 13:07:42;;;;;;;;;;;11.50;61.10;;;;;;5013746;28;19975;-79
2021/12/02 13:10:18;;;;;;;;;;;11.50;59.20;;;;;;5016257;28;19928;-81
2021/12/02 13:12:52;;;;;;;;;;;11.50;60.70;;;;;;5018941;28;19925;-81
2021/12/02 13:15:21;;;;;;;;;;;11.40;59.80;;;;;;5023680;28;19928;-78
2021/12/02 13:17:49;;;;;;;;;;;11.40;60.00;;;;;;5024212;28;19927;-80
2021/12/02 13:20:16;;;;;;;;;;;11.40;60.10;;;;;;5040230;28;20462;-80
2021/12/02 13:22:44;;;;;;;;;;;11.40;60.20;;;;;;5019705;28;20380;-79
2021/12/02 13:25:27;;;;;;;;;;;11.30;59.70;;;;;;5015619;28;19944;-80
2021/12/02 13:27:54;;;;;;;;;;;11.10;60.40;;;;;;5016059;28;20032;-80
2021/12/02 13:30:21;;;;;;;;;;;11.10;60.70;;;;;;5014213;28;20293;-79
2021/12/02 13:32:49;;;;;;;;;;;11.10;61.00;;;;;;5010803;28;19928;-81
2021/12/02 13:35:24;;;;;;;;;;;11.10;61.20;;;;;;5013881;28;19929;-80
2021/12/02 13:38:04;;;;;;;;;;;11.10;61.30;;;;;;5015668;28;20366;-81
2021/12/02 13:40:37;;;;;;;;;;;11.10;61.30;;;;;;5052376;28;19925;-79
2021/12/02 13:43:04;;;;;;;;;;;11.20;61.20;;;;;;5016264;28;19932;-81
2021/12/02 13:45:32;;;;;;;;;;;11.30;61.80;;;;;;5019708;28;20003;-78
2021/12/02 13:48:17;;;;;;;;;;;11.40;60.70;;;;;;5050668;28;19947;-80
2021/12/02 13:50:48;;;;;;;;;;;11.30;61.00;;;;;;5007823;28;19971;-78
2021/12/02 13:53:15;;;;;;;;;;;11.30;59.90;;;;;;5049492;28;19928;-78
2021/12/02 13:55:47;;;;;;;;;;;11.20;60.60;;;;;;5014159;28;19921;-80
2021/12/02 14:00:43;;;;;;;;;;;11.10;60.90;;;;;;5012767;28;19948;-77
2021/12/02 14:03:13;;;;;;;;;;;11.10;61.30;;;;;;5017181;28;20341;-81
2021/12/02 14:05:42;;;;;;;;;;;11.20;61.60;;;;;;5014905;28;19928;-78
2021/12/02 14:08:11;;;;;;;;;;;11.10;61.30;;;;;;5017982;28;19921;-79
2021/12/02 14:10:39;;;;;;;;;;;11.10;61.20;;;;;;5019236;28;19921;-79
2021/12/02 14:13:07;;;;;;;;;;;11.10;61.50;;;;;;5020927;28;20412;-78
2021/12/02 14:15:38;;;;;;;;;;;11.20;62.00;;;;;;5020566;28;19921;-78
2021/12/02 14:18:07;;;;;;;;;;;11.20;62.00;;;;;;5011264;28;19929;-77
2021/12/02 14:20:33;;;;;;;;;;;11.20;61.70;;;;;;5017501;28;20436;-80